Terminal Aerodrome Forecast
Issued by NWS Billings, MT

Home | Current Version | Previous Version | Text Only | Print | Product List | Glossary On
Versions: 1 2 3 4 5 6 7 8 9 10 11 12 13
000
FTUS45 KBYZ 301127
TAFSHR
TAF
KSHR 301127Z 3012/3112 32015G25KT P6SM VCSH FEW060 BKN120
     FM301600 31015G30KT P6SM VCSH BKN040 OVC080
     FM301900 32015G25KT P6SM VCTS BKN040CB OVC100
     FM302100 32015KT 4SM TSRA OVC040CB
     FM310300 31010KT P6SM SCT040 BKN120=

USA.gov is the U.S. government's official web portal to all federal, state and local government web resources and services.